sensor_id;sensor_type;location;lat;lon;timestamp;pressure;altitude;pressure_sealevel;temperature;humidity
47536;BME280;33278;50.826;9.030;2022-07-11T00:02:01;99299.50;;;21.23;53.74
47536;BME280;33278;50.826;9.030;2022-07-11T00:04:32;99298.69;;;21.22;54.19
47536;BME280;33278;50.826;9.030;2022-07-11T00:07:04;99296.78;;;21.23;54.40
47536;BME280;33278;50.826;9.030;2022-07-11T00:09:34;99293.28;;;21.22;54.73
47536;BME280;33278;50.826;9.030;2022-07-11T00:12:05;99293.28;;;21.22;54.29
47536;BME280;33278;50.826;9.030;2022-07-11T00:14:36;99292.47;;;21.22;54.25
47536;BME280;33278;50.826;9.030;2022-07-11T00:17:09;99288.16;;;21.21;54.36
47536;BME280;33278;50.826;9.030;2022-07-11T00:19:39;99285.44;;;21.21;54.98
47536;BME280;33278;50.826;9.030;2022-07-11T00:22:10;99277.31;;;21.21;54.88
47536;BME280;33278;50.826;9.030;2022-07-11T00:24:40;99278.13;;;21.21;54.74
47536;BME280;33278;50.826;9.030;2022-07-11T00:27:11;99274.59;;;21.21;54.57
47536;BME280;33278;50.826;9.030;2022-07-11T00:29:42;99280.84;;;21.21;54.49
47536;BME280;33278;50.826;9.030;2022-07-11T00:32:13;99278.91;;;21.22;54.83
47536;BME280;33278;50.826;9.030;2022-07-11T00:34:43;99273.00;;;21.19;54.68
47536;BME280;33278;50.826;9.030;2022-07-11T00:37:13;99267.56;;;21.19;54.39
47536;BME280;33278;50.826;9.030;2022-07-11T00:39:43;99269.19;;;21.21;54.69
47536;BME280;33278;50.826;9.030;2022-07-11T00:42:17;99264.88;;;21.19;54.64
47536;BME280;33278;50.826;9.030;2022-07-11T00:44:47;99262.16;;;21.19;54.63
47536;BME280;33278;50.826;9.030;2022-07-11T00:47:18;99264.06;;;21.19;54.55
47536;BME280;33278;50.826;9.030;2022-07-11T00:49:49;99264.06;;;21.19;54.77
47536;BME280;33278;50.826;9.030;2022-07-11T00:52:19;99266.47;;;21.21;55.69
47536;BME280;33278;50.826;9.030;2022-07-11T00:54:51;99252.44;;;21.18;54.90
47536;BME280;33278;50.826;9.030;2022-07-11T00:57:22;99255.16;;;21.18;55.37
47536;BME280;33278;50.826;9.030;2022-07-11T00:59:53;99250.84;;;21.17;54.95
47536;BME280;33278;50.826;9.030;2022-07-11T01:02:24;99261.38;;;21.19;55.66
47536;BME280;33278;50.826;9.030;2022-07-11T01:04:55;99265.50;;;21.16;55.11
47536;BME280;33278;50.826;9.030;2022-07-11T01:07:25;99254.66;;;21.16;55.15
47536;BME280;33278;50.826;9.030;2022-07-11T01:09:56;99248.41;;;21.16;55.15
47536;BME280;33278;50.826;9.030;2022-07-11T01:12:26;99246.53;;;21.16;54.89
47536;BME280;33278;50.826;9.030;2022-07-11T01:14:56;99245.44;;;21.17;55.56
47536;BME280;33278;50.826;9.030;2022-07-11T01:17:29;99234.88;;;21.16;55.51
47536;BME280;33278;50.826;9.030;2022-07-11T01:19:59;99231.38;;;21.15;55.33
47536;BME280;33278;50.826;9.030;2022-07-11T01:22:36;99232.47;;;21.14;55.88
47536;BME280;33278;50.826;9.030;2022-07-11T01:25:07;99230.88;;;21.13;54.94
47536;BME280;33278;50.826;9.030;2022-07-11T01:27:38;99236.78;;;21.15;55.32
47536;BME280;33278;50.826;9.030;2022-07-11T01:30:09;99246.84;;;21.15;54.94
47536;BME280;33278;50.826;9.030;2022-07-11T01:32:39;99235.69;;;21.16;56.42
47536;BME280;33278;50.826;9.030;2022-07-11T01:35:09;99234.41;;;21.14;54.68
47536;BME280;33278;50.826;9.030;2022-07-11T01:38:11;99237.91;;;21.14;55.08
47536;BME280;33278;50.826;9.030;2022-07-11T01:40:42;99241.72;;;21.13;54.67
47536;BME280;33278;50.826;9.030;2022-07-11T01:43:12;99221.63;;;21.14;55.72
47536;BME280;33278;50.826;9.030;2022-07-11T01:45:42;99236.00;;;21.15;56.00
47536;BME280;33278;50.826;9.030;2022-07-11T01:48:13;99228.66;;;21.15;56.12
47536;BME280;33278;50.826;9.030;2022-07-11T01:50:43;99226.28;;;21.14;55.95
47536;BME280;33278;50.826;9.030;2022-07-11T01:53:13;99228.97;;;21.14;55.18
47536;BME280;33278;50.826;9.030;2022-07-11T01:55:44;99232.97;;;21.16;55.56
47536;BME280;33278;50.826;9.030;2022-07-11T01:58:14;99231.69;;;21.14;56.30
47536;BME280;33278;50.826;9.030;2022-07-11T02:00:45;99229.75;;;21.14;56.00
47536;BME280;33278;50.826;9.030;2022-07-11T02:03:15;99238.22;;;21.13;55.04
47536;BME280;33278;50.826;9.030;2022-07-11T02:05:46;99232.78;;;21.13;55.31
47536;BME280;33278;50.826;9.030;2022-07-11T02:08:16;99232.06;;;21.21;57.04
47536;BME280;33278;50.826;9.030;2022-07-11T02:10:49;99232.66;;;21.18;56.49
47536;BME280;33278;50.826;9.030;2022-07-11T02:13:21;99228.66;;;21.15;56.59
47536;BME280;33278;50.826;9.030;2022-07-11T02:15:51;99223.75;;;21.17;57.38
47536;BME280;33278;50.826;9.030;2022-07-11T02:18:23;99228.44;;;21.26;57.23
47536;BME280;33278;50.826;9.030;2022-07-11T02:20:53;99232.66;;;21.18;56.96
47536;BME280;33278;50.826;9.030;2022-07-11T02:23:24;99218.44;;;21.12;55.37
47536;BME280;33278;50.826;9.030;2022-07-11T02:25:55;99216.81;;;21.11;56.03
47536;BME280;33278;50.826;9.030;2022-07-11T02:28:25;99213.16;;;21.30;57.08
47536;BME280;33278;50.826;9.030;2022-07-11T02:30:55;99211.44;;;21.34;57.48
47536;BME280;33278;50.826;9.030;2022-07-11T02:33:26;99215.34;;;21.28;56.79
47536;BME280;33278;50.826;9.030;2022-07-11T02:35:56;99219.66;;;21.29;57.40
47536;BME280;33278;50.826;9.030;2022-07-11T02:38:26;99214.56;;;21.27;57.26
47536;BME280;33278;50.826;9.030;2022-07-11T02:40:57;99219.31;;;21.22;56.21
47536;BME280;33278;50.826;9.030;2022-07-11T02:43:29;99222.63;;;21.18;55.92
47536;BME280;33278;50.826;9.030;2022-07-11T02:45:59;99216.22;;;21.14;55.31
47536;BME280;33278;50.826;9.030;2022-07-11T02:48:29;99216.22;;;21.14;56.18
47536;BME280;33278;50.826;9.030;2022-07-11T02:51:01;99218.94;;;21.14;56.42
47536;BME280;33278;50.826;9.030;2022-07-11T02:53:31;99214.44;;;21.10;55.08
47536;BME280;33278;50.826;9.030;2022-07-11T02:56:01;99211.63;;;21.15;56.72
47536;BME280;33278;50.826;9.030;2022-07-11T02:58:32;99210.13;;;21.09;54.73
47536;BME280;33278;50.826;9.030;2022-07-11T03:01:02;99211.41;;;21.11;57.34
47536;BME280;33278;50.826;9.030;2022-07-11T03:03:32;99209.00;;;21.32;57.42
47536;BME280;33278;50.826;9.030;2022-07-11T03:06:03;99210.13;;;21.31;56.97
47536;BME280;33278;50.826;9.030;2022-07-11T03:08:33;99208.34;;;21.27;55.77
47536;BME280;33278;50.826;9.030;2022-07-11T03:11:04;99208.16;;;21.23;55.04
47536;BME280;33278;50.826;9.030;2022-07-11T03:13:34;99211.16;;;21.22;55.58
47536;BME280;33278;50.826;9.030;2022-07-11T03:16:05;99209.75;;;21.24;57.47
47536;BME280;33278;50.826;9.030;2022-07-11T03:18:36;99206.38;;;21.18;56.23
47536;BME280;33278;50.826;9.030;2022-07-11T03:21:06;99208.91;;;21.15;55.41
47536;BME280;33278;50.826;9.030;2022-07-11T03:23:36;99209.19;;;21.13;56.29
47536;BME280;33278;50.826;9.030;2022-07-11T03:26:07;99216.03;;;21.11;55.91
47536;BME280;33278;50.826;9.030;2022-07-11T03:28:37;99204.41;;;21.10;56.17
47536;BME280;33278;50.826;9.030;2022-07-11T03:31:08;99210.94;;;21.09;55.55
47536;BME280;33278;50.826;9.030;2022-07-11T03:33:38;99214.75;;;21.08;56.35
47536;BME280;33278;50.826;9.030;2022-07-11T03:36:08;99210.44;;;21.07;55.81
47536;BME280;33278;50.826;9.030;2022-07-11T03:38:38;99206.13;;;21.06;56.06
47536;BME280;33278;50.826;9.030;2022-07-11T03:41:09;99210.75;;;21.06;55.76
47536;BME280;33278;50.826;9.030;2022-07-11T03:43:39;99217.25;;;21.05;55.81
47536;BME280;33278;50.826;9.030;2022-07-11T03:46:09;99216.44;;;21.04;55.80
47536;BME280;33278;50.826;9.030;2022-07-11T03:48:40;99205.91;;;21.02;55.84
47536;BME280;33278;50.826;9.030;2022-07-11T03:51:10;99204.69;;;21.09;57.20
47536;BME280;33278;50.826;9.030;2022-07-11T03:53:40;99203.28;;;21.11;56.86
47536;BME280;33278;50.826;9.030;2022-07-11T03:56:10;99205.69;;;21.13;56.40
47536;BME280;33278;50.826;9.030;2022-07-11T03:58:42;99207.59;;;21.12;56.41
47536;BME280;33278;50.826;9.030;2022-07-11T04:01:13;99204.09;;;21.12;55.95
47536;BME280;33278;50.826;9.030;2022-07-11T04:03:43;99207.91;;;21.11;56.48
47536;BME280;33278;50.826;9.030;2022-07-11T04:06:14;99207.13;;;21.10;56.17
47536;BME280;33278;50.826;9.030;2022-07-11T04:08:44;99212.53;;;21.10;55.99
47536;BME280;33278;50.826;9.030;2022-07-11T04:11:14;99205.50;;;21.09;56.25
47536;BME280;33278;50.826;9.030;2022-07-11T04:13:45;99203.91;;;21.08;55.72
47536;BME280;33278;50.826;9.030;2022-07-11T04:16:16;99204.69;;;21.09;55.90
47536;BME280;33278;50.826;9.030;2022-07-11T04:18:46;99204.69;;;21.09;55.77
47536;BME280;33278;50.826;9.030;2022-07-11T04:21:16;99208.22;;;21.09;55.67
47536;BME280;33278;50.826;9.030;2022-07-11T04:23:47;99208.50;;;21.08;55.83
47536;BME280;33278;50.826;9.030;2022-07-11T04:26:17;99210.44;;;21.07;55.72
47536;BME280;33278;50.826;9.030;2022-07-11T04:28:47;99211.53;;;21.06;55.42
47536;BME280;33278;50.826;9.030;2022-07-11T04:31:18;99208.81;;;21.06;55.67
47536;BME280;33278;50.826;9.030;2022-07-11T04:33:48;99212.34;;;21.07;55.82
47536;BME280;33278;50.826;9.030;2022-07-11T04:36:18;99216.94;;;21.06;55.61
47536;BME280;33278;50.826;9.030;2022-07-11T04:38:49;99222.38;;;21.06;55.45
47536;BME280;33278;50.826;9.030;2022-07-11T04:41:19;99216.16;;;21.06;55.55
47536;BME280;33278;50.826;9.030;2022-07-11T04:43:50;99223.47;;;21.05;55.84
47536;BME280;33278;50.826;9.030;2022-07-11T04:46:20;99220.28;;;21.03;55.97
47536;BME280;33278;50.826;9.030;2022-07-11T04:48:50;99220.28;;;21.03;55.57
47536;BME280;33278;50.826;9.030;2022-07-11T04:51:21;99219.47;;;21.02;55.72
47536;BME280;33278;50.826;9.030;2022-07-11T04:53:51;99215.97;;;21.02;55.53
47536;BME280;33278;50.826;9.030;2022-07-11T04:56:22;99214.06;;;21.02;55.37
47536;BME280;33278;50.826;9.030;2022-07-11T04:58:52;99211.34;;;21.02;55.62
47536;BME280;33278;50.826;9.030;2022-07-11T05:01:22;99212.44;;;21.01;55.38
47536;BME280;33278;50.826;9.030;2022-07-11T05:03:53;99219.78;;;21.01;55.48
47536;BME280;33278;50.826;9.030;2022-07-11T05:06:23;99217.06;;;21.01;55.35
47536;BME280;33278;50.826;9.030;2022-07-11T05:08:53;99210.06;;;21.00;55.44
47536;BME280;33278;50.826;9.030;2022-07-11T05:11:26;99208.44;;;20.99;55.33
47536;BME280;33278;50.826;9.030;2022-07-11T05:13:57;99220.09;;;20.99;55.52
47536;BME280;33278;50.826;9.030;2022-07-11T05:16:27;99223.59;;;21.00;55.52
47536;BME280;33278;50.826;9.030;2022-07-11T05:18:57;99219.28;;;20.99;55.15
47536;BME280;33278;50.826;9.030;2022-07-11T05:21:27;99230.13;;;20.99;55.33
47536;BME280;33278;50.826;9.030;2022-07-11T05:23:58;99222.31;;;20.97;55.31
47536;BME280;33278;50.826;9.030;2022-07-11T05:26:28;99230.13;;;20.99;55.21
47536;BME280;33278;50.826;9.030;2022-07-11T05:28:58;99240.94;;;20.99;55.05
47536;BME280;33278;50.826;9.030;2022-07-11T05:31:28;99239.34;;;20.98;55.05
47536;BME280;33278;50.826;9.030;2022-07-11T05:34:00;99243.97;;;20.97;54.90
47536;BME280;33278;50.826;9.030;2022-07-11T05:36:30;99246.69;;;20.97;55.05
47536;BME280;33278;50.826;9.030;2022-07-11T05:39:00;99245.38;;;20.95;54.66
47536;BME280;33278;50.826;9.030;2022-07-11T05:41:30;99253.50;;;20.95;55.06
47536;BME280;33278;50.826;9.030;2022-07-11T05:44:01;99253.50;;;20.95;54.72
47536;BME280;33278;50.826;9.030;2022-07-11T05:46:31;99254.63;;;20.94;54.71
47536;BME280;33278;50.826;9.030;2022-07-11T05:49:01;99248.38;;;20.93;54.75
47536;BME280;33278;50.826;9.030;2022-07-11T05:51:31;99248.38;;;20.93;54.66
47536;BME280;33278;50.826;9.030;2022-07-11T05:54:02;99251.41;;;20.92;54.94
47536;BME280;33278;50.826;9.030;2022-07-11T05:56:33;99260.03;;;20.94;55.10
47536;BME280;33278;50.826;9.030;2022-07-11T05:59:03;99254.91;;;20.92;54.71
47536;BME280;33278;50.826;9.030;2022-07-11T06:01:33;99247.91;;;20.91;54.75
47536;BME280;33278;50.826;9.030;2022-07-11T06:04:04;99253.31;;;20.91;54.53
47536;BME280;33278;50.826;9.030;2022-07-11T06:06:34;99260.03;;;20.94;54.82
47536;BME280;33278;50.826;9.030;2022-07-11T06:09:05;99254.91;;;20.92;55.02
47536;BME280;33278;50.826;9.030;2022-07-11T06:11:35;99256.81;;;20.92;55.01
47536;BME280;33278;50.826;9.030;2022-07-11T06:14:06;99265.72;;;20.92;55.01
47536;BME280;33278;50.826;9.030;2022-07-11T06:16:37;99259.84;;;20.90;54.76
47536;BME280;33278;50.826;9.030;2022-07-11T06:19:07;99260.94;;;20.89;55.14
47536;BME280;33278;50.826;9.030;2022-07-11T06:21:37;99264.44;;;20.90;55.00
47536;BME280;33278;50.826;9.030;2022-07-11T06:24:08;99259.03;;;20.90;54.84
47536;BME280;33278;50.826;9.030;2022-07-11T06:26:38;99261.72;;;20.90;54.68
47536;BME280;33278;50.826;9.030;2022-07-11T06:29:09;99263.66;;;20.89;55.51
47536;BME280;33278;50.826;9.030;2022-07-11T06:31:39;99273.28;;;20.81;55.82
47536;BME280;33278;50.826;9.030;2022-07-11T06:34:09;99268.19;;;20.80;55.86
47536;BME280;33278;50.826;9.030;2022-07-11T06:36:39;99274.41;;;20.80;55.72
47536;BME280;33278;50.826;9.030;2022-07-11T06:39:10;99274.41;;;20.80;55.90
47536;BME280;33278;50.826;9.030;2022-07-11T06:41:40;99274.88;;;20.82;55.74
47536;BME280;33278;50.826;9.030;2022-07-11T06:44:10;99274.09;;;20.82;55.67
47536;BME280;33278;50.826;9.030;2022-07-11T06:46:41;99277.91;;;20.81;55.75
47536;BME280;33278;50.826;9.030;2022-07-11T06:49:11;99271.91;;;20.84;55.03
47536;BME280;33278;50.826;9.030;2022-07-11T06:51:43;99275.91;;;20.86;55.13
47536;BME280;33278;50.826;9.030;2022-07-11T06:54:13;99276.69;;;20.87;55.25
47536;BME280;33278;50.826;9.030;2022-07-11T06:56:43;99279.41;;;20.87;55.21
47536;BME280;33278;50.826;9.030;2022-07-11T06:59:14;99283.22;;;20.86;55.00
47536;BME280;33278;50.826;9.030;2022-07-11T07:01:44;99283.22;;;20.86;55.09
47536;BME280;33278;50.826;9.030;2022-07-11T07:04:14;99279.19;;;20.83;55.32
47536;BME280;33278;50.826;9.030;2022-07-11T07:06:44;99278.09;;;20.84;54.87
47536;BME280;33278;50.826;9.030;2022-07-11T07:09:15;99273.00;;;20.83;55.00
47536;BME280;33278;50.826;9.030;2022-07-11T07:11:45;99277.78;;;20.86;54.86
47536;BME280;33278;50.826;9.030;2022-07-11T07:14:15;99281.31;;;20.86;55.15
47536;BME280;33278;50.826;9.030;2022-07-11T07:16:46;99284.31;;;20.85;54.77
47536;BME280;33278;50.826;9.030;2022-07-11T07:19:16;99278.69;;;20.81;54.63
47536;BME280;33278;50.826;9.030;2022-07-11T07:21:46;99287.63;;;20.82;54.55
47536;BME280;33278;50.826;9.030;2022-07-11T07:24:17;99284.44;;;20.80;55.06
47536;BME280;33278;50.826;9.030;2022-07-11T07:26:48;99283.53;;;20.84;54.93
47536;BME280;33278;50.826;9.030;2022-07-11T07:29:18;99290.84;;;20.84;54.94
47536;BME280;33278;50.826;9.030;2022-07-11T07:31:48;99286.81;;;20.81;55.06
47536;BME280;33278;50.826;9.030;2022-07-11T07:34:20;99286.63;;;20.78;55.15
47536;BME280;33278;50.826;9.030;2022-07-11T07:36:50;99284.22;;;20.76;55.55
47536;BME280;33278;50.826;9.030;2022-07-11T07:39:21;99285.53;;;20.79;55.41
47536;BME280;33278;50.826;9.030;2022-07-11T07:41:51;99283.63;;;20.79;55.17
47536;BME280;33278;50.826;9.030;2022-07-11T07:44:21;99287.94;;;20.80;55.18
47536;BME280;33278;50.826;9.030;2022-07-11T07:46:52;99295.56;;;20.78;54.91
47536;BME280;33278;50.826;9.030;2022-07-11T07:49:22;99285.53;;;20.79;55.07
47536;BME280;33278;50.826;9.030;2022-07-11T07:51:52;99296.88;;;20.81;54.88
47536;BME280;33278;50.826;9.030;2022-07-11T07:54:22;99293.06;;;20.82;55.35
47536;BME280;33278;50.826;9.030;2022-07-11T07:56:53;99296.06;;;20.80;54.99
47536;BME280;33278;50.826;9.030;2022-07-11T07:59:23;99295.75;;;20.82;54.76
47536;BME280;33278;50.826;9.030;2022-07-11T08:01:55;99301.50;;;20.80;54.93
47536;BME280;33278;50.826;9.030;2022-07-11T08:04:25;99299.88;;;20.79;54.97
47536;BME280;33278;50.826;9.030;2022-07-11T08:06:55;99301.78;;;20.79;54.73
47536;BME280;33278;50.826;9.030;2022-07-11T08:09:29;99303.69;;;20.78;55.02
47536;BME280;33278;50.826;9.030;2022-07-11T08:11:59;99307.19;;;20.79;55.23
47536;BME280;33278;50.826;9.030;2022-07-11T08:14:29;99297.19;;;20.79;55.78
47536;BME280;33278;50.826;9.030;2022-07-11T08:17:01;99314.81;;;20.77;54.91
47536;BME280;33278;50.826;9.030;2022-07-11T08:19:31;99305.88;;;20.76;55.59
47536;BME280;33278;50.826;9.030;2022-07-11T08:22:02;99310.22;;;20.77;54.81
47536;BME280;33278;50.826;9.030;2022-07-11T08:24:32;99308.59;;;20.76;54.76
47536;BME280;33278;50.826;9.030;2022-07-11T08:27:03;99310.72;;;20.79;55.16
47536;BME280;33278;50.826;9.030;2022-07-11T08:29:34;99308.91;;;20.75;55.10
47536;BME280;33278;50.826;9.030;2022-07-11T08:32:05;99307.31;;;20.74;55.15
47536;BME280;33278;50.826;9.030;2022-07-11T08:34:36;99317.81;;;20.75;54.81
47536;BME280;33278;50.826;9.030;2022-07-11T08:37:06;99317.03;;;20.75;54.89
47536;BME280;33278;50.826;9.030;2022-07-11T08:39:36;99311.31;;;20.76;55.64
47536;BME280;33278;50.826;9.030;2022-07-11T08:42:07;99307.50;;;20.77;55.23
47536;BME280;33278;50.826;9.030;2022-07-11T08:44:37;99313.72;;;20.78;55.01
47536;BME280;33278;50.826;9.030;2022-07-11T08:47:08;99310.22;;;20.77;54.99
47536;BME280;33278;50.826;9.030;2022-07-11T08:49:40;99314.59;;;20.73;54.92
47536;BME280;33278;50.826;9.030;2022-07-11T08:52:12;99309.38;;;20.77;54.79
47536;BME280;33278;50.826;9.030;2022-07-11T08:54:43;99313.22;;;20.76;54.88
47536;BME280;33278;50.826;9.030;2022-07-11T08:57:13;99316.72;;;20.76;54.96
47536;BME280;33278;50.826;9.030;2022-07-11T08:59:47;99304.78;;;20.77;55.03
47536;BME280;33278;50.826;9.030;2022-07-11T09:02:18;99307.59;;;20.72;54.48
47536;BME280;33278;50.826;9.030;2022-07-11T09:04:49;99309.19;;;20.73;54.93
47536;BME280;33278;50.826;9.030;2022-07-11T09:07:19;99310.47;;;20.62;55.53
47536;BME280;33278;50.826;9.030;2022-07-11T09:09:49;99307.31;;;20.74;55.11
47536;BME280;33278;50.826;9.030;2022-07-11T09:12:20;99313.22;;;20.76;54.95
47536;BME280;33278;50.826;9.030;2022-07-11T09:14:50;99303.50;;;20.75;54.98
47536;BME280;33278;50.826;9.030;2022-07-11T09:17:25;99303.97;;;20.77;54.93
47536;BME280;33278;50.826;9.030;2022-07-11T09:19:56;99308.59;;;20.76;55.05
47536;BME280;33278;50.826;9.030;2022-07-11T09:22:27;99309.69;;;20.75;54.95
47536;BME280;33278;50.826;9.030;2022-07-11T09:25:15;99313.22;;;20.76;54.73
47536;BME280;33278;50.826;9.030;2022-07-11T09:28:03;99311.31;;;20.76;54.73
47536;BME280;33278;50.826;9.030;2022-07-11T09:30:36;99313.22;;;20.76;55.30
47536;BME280;33278;50.826;9.030;2022-07-11T09:33:11;99311.63;;;20.75;55.29
47536;BME280;33278;50.826;9.030;2022-07-11T09:35:44;99306.25;;;20.69;55.59
47536;BME280;33278;50.826;9.030;2022-07-11T09:38:16;99309.69;;;20.75;55.45
47536;BME280;33278;50.826;9.030;2022-07-11T09:40:48;99307.81;;;20.76;55.12
47536;BME280;33278;50.826;9.030;2022-07-11T09:43:25;99299.97;;;20.74;54.96
47536;BME280;33278;50.826;9.030;2022-07-11T09:46:04;99307.00;;;20.75;55.51
47536;BME280;33278;50.826;9.030;2022-07-11T09:48:35;99303.69;;;20.78;55.27
47536;BME280;33278;50.826;9.030;2022-07-11T09:51:06;99302.41;;;20.76;55.02
47536;BME280;33278;50.826;9.030;2022-07-11T09:53:53;99300.28;;;20.73;55.46
47536;BME280;33278;50.826;9.030;2022-07-11T09:56:44;99313.00;;;20.72;56.15
47536;BME280;33278;50.826;9.030;2022-07-11T09:59:15;99304.06;;;20.71;55.72
47536;BME280;33278;50.826;9.030;2022-07-11T10:01:45;99309.19;;;20.73;55.11
47536;BME280;33278;50.826;9.030;2022-07-11T10:04:16;99309.19;;;20.73;55.20
47536;BME280;33278;50.826;9.030;2022-07-11T10:06:46;99307.00;;;20.75;54.64
47536;BME280;33278;50.826;9.030;2022-07-11T10:09:16;99298.06;;;20.75;55.31
47536;BME280;33278;50.826;9.030;2022-07-11T10:11:47;99310.00;;;20.74;54.95
47536;BME280;33278;50.826;9.030;2022-07-11T10:14:17;99313.81;;;20.73;54.95
47536;BME280;33278;50.826;9.030;2022-07-11T10:17:09;99313.59;;;20.69;55.60
47536;BME280;33278;50.826;9.030;2022-07-11T10:19:53;99309.38;;;20.63;55.56
47536;BME280;33278;50.826;9.030;2022-07-11T10:22:31;99316.22;;;20.74;55.17
47536;BME280;33278;50.826;9.030;2022-07-11T10:28:30;99319.50;;;20.71;55.08
47536;BME280;33278;50.826;9.030;2022-07-11T10:30:57;99316.28;;;20.69;55.20
47536;BME280;33278;50.826;9.030;2022-07-11T10:33:31;99320.41;;;20.66;55.14
47536;BME280;33278;50.826;9.030;2022-07-11T10:36:01;99315.78;;;20.67;54.69
47536;BME280;33278;50.826;9.030;2022-07-11T10:38:31;99326.34;;;20.68;54.77
47536;BME280;33278;50.826;9.030;2022-07-11T10:41:01;99326.03;;;20.70;54.80
47536;BME280;33278;50.826;9.030;2022-07-11T10:43:37;99324.41;;;20.69;55.24
47536;BME280;33278;50.826;9.030;2022-07-11T10:46:13;99335.84;;;20.52;55.93
47536;BME280;33278;50.826;9.030;2022-07-11T10:51:47;99338.06;;;20.64;56.14
47536;BME280;33278;50.826;9.030;2022-07-11T11:00:19;99329.31;;;20.67;54.58
47536;BME280;33278;50.826;9.030;2022-07-11T11:03:00;99334.94;;;20.70;54.62
47536;BME280;33278;50.826;9.030;2022-07-11T11:14:21;99334.06;;;20.75;55.21
47536;BME280;33278;50.826;9.030;2022-07-11T11:16:52;99332.53;;;20.69;55.08
47536;BME280;33278;50.826;9.030;2022-07-11T11:22:15;99338.53;;;20.66;54.91
47536;BME280;33278;50.826;9.030;2022-07-11T11:24:48;99322.81;;;20.68;55.45
47536;BME280;33278;50.826;9.030;2022-07-11T11:27:24;99335.16;;;20.74;54.77
47536;BME280;33278;50.826;9.030;2022-07-11T11:29:56;99336.28;;;20.73;54.60
47536;BME280;33278;50.826;9.030;2022-07-11T11:32:30;99334.06;;;20.75;54.75
47536;BME280;33278;50.826;9.030;2022-07-11T11:35:01;99338.69;;;20.75;54.97
47536;BME280;33278;50.826;9.030;2022-07-11T11:37:34;99336.00;;;20.75;54.92
47536;BME280;33278;50.826;9.030;2022-07-11T11:40:04;99340.31;;;20.76;54.92
47536;BME280;33278;50.826;9.030;2022-07-11T11:42:35;99340.78;;;20.78;54.92
47536;BME280;33278;50.826;9.030;2022-07-11T11:45:05;99340.78;;;20.78;55.23
47536;BME280;33278;50.826;9.030;2022-07-11T11:47:46;99350.50;;;20.65;55.12
47536;BME280;33278;50.826;9.030;2022-07-11T11:50:18;99337.38;;;20.72;55.00
47536;BME280;33278;50.826;9.030;2022-07-11T11:52:48;99334.66;;;20.72;54.65
47536;BME280;33278;50.826;9.030;2022-07-11T11:55:19;99340.06;;;20.72;54.86
47536;BME280;33278;50.826;9.030;2022-07-11T11:57:49;99337.88;;;20.74;54.63
47536;BME280;33278;50.826;9.030;2022-07-11T12:00:21;99336.28;;;20.73;54.92
47536;BME280;33278;50.826;9.030;2022-07-11T12:02:52;99339.19;;;20.77;54.61
47536;BME280;33278;50.826;9.030;2022-07-11T12:05:23;99339.50;;;20.75;55.22
47536;BME280;33278;50.826;9.030;2022-07-11T12:07:53;99338.69;;;20.75;54.60
47536;BME280;33278;50.826;9.030;2022-07-11T12:10:23;99328.66;;;20.75;54.47
47536;BME280;33278;50.826;9.030;2022-07-11T12:12:53;99336.19;;;20.78;54.60
47536;BME280;33278;50.826;9.030;2022-07-11T12:15:28;99331.06;;;20.77;54.39
47536;BME280;33278;50.826;9.030;2022-07-11T12:18:01;99330.06;;;20.73;54.34
47536;BME280;33278;50.826;9.030;2022-07-11T12:23:09;99330.25;;;20.76;54.54
47536;BME280;33278;50.826;9.030;2022-07-11T12:25:39;99340.19;;;20.81;54.27
47536;BME280;33278;50.826;9.030;2022-07-11T12:28:10;99335.09;;;20.79;54.75
47536;BME280;33278;50.826;9.030;2022-07-11T12:30:40;99335.09;;;20.79;54.38
47536;BME280;33278;50.826;9.030;2022-07-11T12:33:13;99333.47;;;20.78;54.04
47536;BME280;33278;50.826;9.030;2022-07-11T12:36:00;99331.28;;;20.80;54.34
47536;BME280;33278;50.826;9.030;2022-07-11T12:38:50;99334.47;;;20.82;54.28
47536;BME280;33278;50.826;9.030;2022-07-11T12:41:24;99334.78;;;20.81;54.27
47536;BME280;33278;50.826;9.030;2022-07-11T12:43:54;99330.47;;;20.80;54.32
47536;BME280;33278;50.826;9.030;2022-07-11T12:46:43;99324.53;;;20.78;54.35
47536;BME280;33278;50.826;9.030;2022-07-11T12:49:16;99336.38;;;20.82;54.16
47536;BME280;33278;50.826;9.030;2022-07-11T12:51:47;99330.66;;;20.83;54.11
47536;BME280;33278;50.826;9.030;2022-07-11T12:54:17;99330.16;;;20.81;54.40
47536;BME280;33278;50.826;9.030;2022-07-11T12:56:52;99316.91;;;20.80;54.48
47536;BME280;33278;50.826;9.030;2022-07-11T12:59:26;99324.53;;;20.78;54.31
47536;BME280;33278;50.826;9.030;2022-07-11T13:02:02;99321.34;;;20.76;53.99
47536;BME280;33278;50.826;9.030;2022-07-11T13:10:11;99318.66;;;20.76;54.03
47536;BME280;33278;50.826;9.030;2022-07-11T13:12:43;99319.44;;;20.76;53.86
47536;BME280;33278;50.826;9.030;2022-07-11T13:15:14;99319.63;;;20.80;54.19
47536;BME280;33278;50.826;9.030;2022-07-11T13:17:54;99319.94;;;20.78;54.04
47536;BME280;33278;50.826;9.030;2022-07-11T13:20:26;99312.91;;;20.77;54.05
47536;BME280;33278;50.826;9.030;2022-07-11T13:22:57;99319.44;;;20.76;54.07
47536;BME280;33278;50.826;9.030;2022-07-11T13:25:27;99320.13;;;20.82;54.33
47536;BME280;33278;50.826;9.030;2022-07-11T13:27:58;99327.44;;;20.81;54.16
47536;BME280;33278;50.826;9.030;2022-07-11T13:30:29;99319.81;;;20.83;54.09
47536;BME280;33278;50.826;9.030;2022-07-11T13:33:00;99331.88;;;20.77;54.02
47536;BME280;33278;50.826;9.030;2022-07-11T13:35:31;99327.56;;;20.76;54.46
47536;BME280;33278;50.826;9.030;2022-07-11T13:38:01;99328.06;;;20.78;54.17
47536;BME280;33278;50.826;9.030;2022-07-11T13:40:31;99326.47;;;20.77;54.08
47536;BME280;33278;50.826;9.030;2022-07-11T13:43:03;99317.50;;;20.77;54.08
47536;BME280;33278;50.826;9.030;2022-07-11T13:45:34;99326.16;;;20.79;54.11
47536;BME280;33278;50.826;9.030;2022-07-11T13:48:04;99329.69;;;20.79;54.11
47536;BME280;33278;50.826;9.030;2022-07-11T13:50:35;99335.88;;;20.80;54.14
47536;BME280;33278;50.826;9.030;2022-07-11T13:53:05;99331.38;;;20.75;54.16
47536;BME280;33278;50.826;9.030;2022-07-11T13:55:36;99324.84;;;20.76;54.07